createdAt,value
2018-07-11T00:01:19.083Z,99631.31
2018-07-11T00:03:49.945Z,99640.77
2018-07-11T00:06:19.884Z,99640.49
2018-07-11T00:08:48.629Z,99642.42
2018-07-11T00:11:17.380Z,99638.91
2018-07-11T00:13:46.927Z,99644.32
2018-07-11T00:16:16.245Z,99645.41
2018-07-11T00:18:45.054Z,99641.38
2018-07-11T00:21:13.964Z,99640.32
2018-07-11T00:23:42.734Z,99633.27
2018-07-11T00:26:11.996Z,99638.45
2018-07-11T00:28:40.769Z,99640.34
2018-07-11T00:31:09.632Z,99635.98
2018-07-11T00:33:38.373Z,99631.34
2018-07-11T00:36:07.142Z,99626.47
2018-07-11T00:38:35.926Z,99633.21
2018-07-11T00:41:04.735Z,99630.23
2018-07-11T00:43:35.161Z,99634.56
2018-07-11T00:46:04.659Z,99639.72
2018-07-11T00:48:33.673Z,99639.17
2018-07-11T00:51:02.811Z,99634.56
2018-07-11T00:53:33.158Z,99636.46
2018-07-11T00:56:02.614Z,99625.36
2018-07-11T00:58:35.173Z,99625.63
2018-07-11T01:01:17.670Z,99625.09
2018-07-11T01:03:57.734Z,99614.80
2018-07-11T01:06:26.502Z,99621.26
2018-07-11T01:08:58.208Z,99619.60
2018-07-11T01:11:31.381Z,99616.05
2018-07-11T01:14:00.109Z,99621.16
2018-07-11T01:16:28.994Z,99613.03
2018-07-11T01:19:02.279Z,99610.05
2018-07-11T01:21:31.605Z,99614.62
2018-07-11T01:24:00.447Z,99616.50
2018-07-11T01:26:32.221Z,99620.58
2018-07-11T01:29:01.066Z,99624.63
2018-07-11T01:31:29.821Z,99619.48
2018-07-11T01:33:58.983Z,99620.80
2018-07-11T01:36:28.082Z,99628.37
2018-07-11T01:38:57.200Z,99625.68
2018-07-11T01:41:25.979Z,99620.80
2018-07-11T01:43:54.730Z,99622.97
2018-07-11T01:46:23.491Z,99628.39
2018-07-11T01:48:52.258Z,99632.48
2018-07-11T01:51:22.819Z,99629.74
2018-07-11T01:53:51.585Z,99627.03
2018-07-11T01:56:20.289Z,99623.52
2018-07-11T01:58:49.008Z,99625.41
2018-07-11T02:01:17.738Z,99628.66
2018-07-11T02:03:46.469Z,99625.98
2018-07-11T02:06:15.268Z,99635.23
2018-07-11T02:08:44.170Z,99629.00
2018-07-11T02:11:12.952Z,99630.63
2018-07-11T02:13:41.902Z,99635.81
2018-07-11T02:16:10.822Z,99630.13
2018-07-11T02:18:39.623Z,99628.81
2018-07-11T02:21:08.360Z,99633.95
2018-07-11T02:23:38.751Z,99637.48
2018-07-11T02:26:07.549Z,99634.53
2018-07-11T02:28:36.276Z,99633.18
2018-07-11T02:31:05.210Z,99636.70
2018-07-11T02:33:33.943Z,99639.17
2018-07-11T02:36:02.670Z,99633.21
2018-07-11T02:38:31.414Z,99624.55
2018-07-11T02:41:00.143Z,99638.36
2018-07-11T02:43:28.890Z,99643.17
2018-07-11T02:45:57.667Z,99640.19
2018-07-11T02:48:26.426Z,99641.81
2018-07-11T02:50:55.182Z,99643.44
2018-07-11T02:53:24.817Z,99641.81
2018-07-11T02:55:54.079Z,99642.66
2018-07-11T02:58:22.803Z,99645.88
2018-07-11T03:00:51.545Z,99646.91
2018-07-11T03:03:20.562Z,99651.29
2018-07-11T03:05:49.274Z,99649.67
2018-07-11T03:08:18.833Z,99648.89
2018-07-11T03:10:47.883Z,99653.77
2018-07-11T03:13:20.713Z,99649.43
2018-07-11T03:15:49.443Z,99641.31
2018-07-11T03:18:18.152Z,99650.08
2018-07-11T03:20:46.879Z,99655.52
2018-07-11T03:23:15.629Z,99655.55
2018-07-11T03:25:44.393Z,99650.95
2018-07-11T03:28:13.106Z,99654.44
2018-07-11T03:30:41.952Z,99649.86
2018-07-11T03:33:10.675Z,99649.13
2018-07-11T03:35:39.386Z,99655.37
2018-07-11T03:38:08.175Z,99651.08
2018-07-11T03:40:36.903Z,99651.61
2018-07-11T03:43:05.631Z,99656.22
2018-07-11T03:45:34.696Z,99657.60
2018-07-11T03:48:03.461Z,99662.21
2018-07-11T03:50:32.264Z,99662.45
2018-07-11T03:53:00.994Z,99666.80
2018-07-11T03:55:29.738Z,99661.09
2018-07-11T03:57:58.639Z,99659.77
2018-07-11T04:00:27.350Z,99663.31
2018-07-11T04:02:56.883Z,99672.84
2018-07-11T04:05:25.603Z,99677.23
2018-07-11T04:07:54.360Z,99676.16
2018-07-11T04:10:23.134Z,99673.46
2018-07-11T04:12:58.523Z,99666.09
2018-07-11T04:15:27.317Z,99670.17
2018-07-11T04:17:56.294Z,99672.94
2018-07-11T04:20:25.337Z,99661.66
2018-07-11T04:22:54.119Z,99669.34
2018-07-11T04:25:22.986Z,99666.59
2018-07-11T04:27:51.726Z,99664.59
2018-07-11T04:30:20.457Z,99675.73
2018-07-11T04:32:49.178Z,99673.63
2018-07-11T04:35:17.916Z,99675.08
2018-07-11T04:37:46.834Z,99671.30
2018-07-11T04:40:15.567Z,99665.91
2018-07-11T04:42:44.281Z,99671.89
2018-07-11T04:45:12.991Z,99667.70
2018-07-11T04:47:41.731Z,99673.54
2018-07-11T04:50:10.446Z,99669.46
2018-07-11T04:52:39.174Z,99667.91
2018-07-11T04:55:07.914Z,99668.77
2018-07-11T04:57:36.648Z,99665.23
2018-07-11T05:00:05.467Z,99660.77
2018-07-11T05:02:34.219Z,99666.96
2018-07-11T05:05:02.934Z,99665.14
2018-07-11T05:07:31.663Z,99669.65
2018-07-11T05:10:00.372Z,99671.14
2018-07-11T05:12:29.128Z,99669.45
2018-07-11T05:14:57.858Z,99678.23
2018-07-11T05:17:26.598Z,99669.75
2018-07-11T05:19:55.322Z,99677.50
2018-07-11T05:22:24.025Z,99672.50
2018-07-11T05:24:52.773Z,99672.81
2018-07-11T05:27:21.496Z,99669.23
2018-07-11T05:29:50.222Z,99672.27
2018-07-11T05:32:18.918Z,99673.98
2018-07-11T05:34:47.658Z,99675.95
2018-07-11T05:37:16.570Z,99678.00
2018-07-11T05:39:45.314Z,99678.94
2018-07-11T05:42:14.053Z,99676.56
2018-07-11T05:47:16.710Z,99679.56
2018-07-11T05:49:45.443Z,99675.69
2018-07-11T05:52:14.201Z,99678.49
2018-07-11T05:54:42.885Z,99672.28
2018-07-11T05:57:11.578Z,99683.03
2018-07-11T05:59:40.262Z,99687.94
2018-07-11T06:02:09.001Z,99681.64
2018-07-11T06:04:37.694Z,99685.36
2018-07-11T06:07:06.487Z,99682.68
2018-07-11T06:09:35.186Z,99670.64
2018-07-11T06:12:04.092Z,99680.56
2018-07-11T06:14:32.844Z,99683.58
2018-07-11T06:17:01.847Z,99682.86
2018-07-11T06:19:30.598Z,99677.84
2018-07-11T06:21:59.339Z,99683.10
2018-07-11T06:24:28.055Z,99682.16
2018-07-11T06:26:57.205Z,99678.95
2018-07-11T06:29:25.922Z,99679.02
2018-07-11T06:31:54.648Z,99677.49
2018-07-11T06:34:23.358Z,99666.56
2018-07-11T06:36:52.282Z,99671.16
2018-07-11T06:39:21.101Z,99670.28
2018-07-11T06:41:49.974Z,99659.94
2018-07-11T06:44:18.702Z,99667.59
2018-07-11T06:46:47.462Z,99664.98
2018-07-11T06:49:16.191Z,99662.11
2018-07-11T06:51:44.979Z,99661.25
2018-07-11T06:54:13.727Z,99661.06
2018-07-11T06:56:42.652Z,99657.39
2018-07-11T06:59:11.418Z,99658.59
2018-07-11T07:01:40.133Z,99652.17
2018-07-11T07:04:08.882Z,99653.52
2018-07-11T07:06:37.610Z,99651.19
2018-07-11T07:09:07.129Z,99644.96
2018-07-11T07:11:35.949Z,99644.89
2018-07-11T07:14:04.689Z,99645.05
2018-07-11T07:16:33.486Z,99647.29
2018-07-11T07:19:02.191Z,99643.60
2018-07-11T07:21:30.917Z,99643.10
2018-07-11T07:23:59.678Z,99642.18
2018-07-11T07:26:28.393Z,99638.42
2018-07-11T07:28:57.134Z,99642.70
2018-07-11T07:31:25.892Z,99640.14
2018-07-11T07:33:54.609Z,99645.55
2018-07-11T07:36:23.318Z,99634.77
2018-07-11T07:38:52.038Z,99635.17
2018-07-11T07:41:20.777Z,99635.84
2018-07-11T07:43:49.550Z,99642.12
2018-07-11T07:46:18.342Z,99635.74
2018-07-11T07:48:47.179Z,99631.36
2018-07-11T07:51:15.966Z,99626.19
2018-07-11T07:53:44.707Z,99626.53
2018-07-11T07:56:13.467Z,99624.06
2018-07-11T07:58:42.297Z,99623.38
2018-07-11T08:01:11.023Z,99625.58
2018-07-11T08:03:39.801Z,99622.90
2018-07-11T08:06:08.536Z,99624.39
2018-07-11T08:08:37.294Z,99623.50
2018-07-11T08:11:06.095Z,99619.60
2018-07-11T08:13:34.842Z,99626.84
2018-07-11T08:16:03.602Z,99625.16
2018-07-11T08:18:32.339Z,99623.88
2018-07-11T08:21:01.078Z,99627.20
2018-07-11T08:25:42.374Z,99614.45
2018-07-11T08:28:32.131Z,99620.95
2018-07-11T08:31:11.815Z,99622.48
2018-07-11T08:34:11.295Z,99615.41
2018-07-11T08:38:56.105Z,99620.22
2018-07-11T08:41:38.578Z,99612.36
2018-07-11T08:44:18.724Z,99614.48
2018-07-11T08:46:58.234Z,99614.22
2018-07-11T08:50:01.533Z,99611.20
2018-07-11T08:53:16.361Z,99612.20
2018-07-11T08:58:03.766Z,99609.09
2018-07-11T09:01:44.639Z,99611.14
2018-07-11T09:04:42.256Z,99602.53
2018-07-11T09:07:25.038Z,99601.02
2018-07-11T09:11:07.159Z,99597.27
2018-07-11T09:14:00.712Z,99595.53
2018-07-11T09:16:41.939Z,99599.02
2018-07-11T09:19:28.443Z,99595.63
2018-07-11T09:22:11.067Z,99597.33
2018-07-11T09:24:45.234Z,99591.13
2018-07-11T09:27:14.303Z,99590.84
2018-07-11T09:29:43.948Z,99588.83
2018-07-11T09:32:13.431Z,99590.85
2018-07-11T09:34:42.699Z,99586.14
2018-07-11T09:37:11.477Z,99584.45
2018-07-11T09:39:40.814Z,99579.86
2018-07-11T09:42:09.537Z,99579.49
2018-07-11T09:44:39.281Z,99586.29
2018-07-11T09:47:13.065Z,99590.37
2018-07-11T09:49:41.804Z,99585.66
2018-07-11T09:52:10.570Z,99590.69
2018-07-11T09:54:39.287Z,99586.32
2018-07-11T09:57:08.015Z,99587.67
2018-07-11T09:59:36.789Z,99590.36
2018-07-11T10:02:05.552Z,99584.84
2018-07-11T10:04:34.517Z,99586.78
2018-07-11T10:07:04.445Z,99583.98
2018-07-11T10:09:33.180Z,99583.74
2018-07-11T10:12:01.912Z,99586.80
2018-07-11T10:14:30.791Z,99583.30
2018-07-11T10:16:59.568Z,99578.66
2018-07-11T10:19:28.278Z,99576.03
2018-07-11T10:21:57.010Z,99584.62
2018-07-11T10:24:25.730Z,99584.16
2018-07-11T10:26:54.470Z,99582.53
2018-07-11T10:29:23.257Z,99580.96
2018-07-11T10:31:51.981Z,99571.56
2018-07-11T10:34:20.708Z,99575.72
2018-07-11T10:36:49.575Z,99577.30
2018-07-11T10:39:18.286Z,99569.63
2018-07-11T10:41:47.176Z,99571.03
2018-07-11T10:44:15.878Z,99566.75
2018-07-11T10:46:44.622Z,99560.27
2018-07-11T10:49:13.566Z,99568.13
2018-07-11T10:51:42.293Z,99565.73
2018-07-11T10:54:11.046Z,99566.27
2018-07-11T10:56:39.745Z,99561.09
2018-07-11T10:59:08.452Z,99571.48
2018-07-11T11:01:37.183Z,99572.80
2018-07-11T11:04:05.890Z,99563.27
2018-07-11T11:06:34.654Z,99566.28
2018-07-11T11:09:03.671Z,99570.58
2018-07-11T11:11:32.394Z,99573.04
2018-07-11T11:14:01.138Z,99567.58
2018-07-11T11:16:29.878Z,99572.95
2018-07-11T11:18:58.575Z,99568.59
2018-07-11T11:21:27.318Z,99561.86
2018-07-11T11:23:56.066Z,99560.84
2018-07-11T11:26:24.862Z,99560.16
2018-07-11T11:28:53.662Z,99544.72
2018-07-11T11:31:22.351Z,99546.48
2018-07-11T11:33:51.149Z,99559.69
2018-07-11T11:36:19.845Z,99551.70
2018-07-11T11:38:48.669Z,99548.45
2018-07-11T11:41:17.405Z,99552.74
2018-07-11T11:43:46.172Z,99555.70
2018-07-11T11:46:14.938Z,99552.64
2018-07-11T11:48:43.848Z,99549.84
2018-07-11T11:51:12.537Z,99547.73
2018-07-11T11:53:41.217Z,99543.30
2018-07-11T11:56:09.925Z,99542.58
2018-07-11T11:58:38.691Z,99539.92
2018-07-11T12:01:07.397Z,99545.89
2018-07-11T12:03:36.256Z,99533.93
2018-07-11T12:06:04.957Z,99541.23
2018-07-11T12:08:33.653Z,99535.39
2018-07-11T12:11:02.390Z,99540.14
2018-07-11T12:13:31.242Z,99537.00
2018-07-11T12:16:00.029Z,99545.52
2018-07-11T12:18:28.794Z,99541.50
2018-07-11T12:20:59.077Z,99533.38
2018-07-11T12:23:27.825Z,99537.98
2018-07-11T12:26:06.725Z,99530.97
2018-07-11T12:28:35.673Z,99534.88
2018-07-11T12:31:05.069Z,99534.94
2018-07-11T12:33:34.201Z,99532.03
2018-07-11T12:36:03.138Z,99530.30
2018-07-11T12:38:31.870Z,99525.64
2018-07-11T12:41:00.609Z,99525.79
2018-07-11T12:43:29.341Z,99528.05
2018-07-11T12:45:58.542Z,99523.84
2018-07-11T12:48:32.374Z,99519.16
2018-07-11T12:51:01.085Z,99521.94
2018-07-11T12:53:30.166Z,99528.53
2018-07-11T12:55:59.323Z,99521.95
2018-07-11T12:58:28.379Z,99518.53
2018-07-11T13:00:57.207Z,99525.69
2018-07-11T13:03:26.414Z,99520.23
2018-07-11T13:05:55.263Z,99519.94
2018-07-11T13:08:23.997Z,99520.58
2018-07-11T13:10:52.721Z,99517.31
2018-07-11T13:13:21.780Z,99519.02
2018-07-11T13:15:50.509Z,99523.06
2018-07-11T13:18:19.378Z,99520.21
2018-07-11T13:20:48.117Z,99515.08
2018-07-11T13:23:16.813Z,99520.22
2018-07-11T13:25:45.546Z,99512.73
2018-07-11T13:28:14.245Z,99511.88
2018-07-11T13:30:43.126Z,99507.59
2018-07-11T13:33:11.810Z,99515.11
2018-07-11T13:35:40.513Z,99518.36
2018-07-11T13:38:12.008Z,99518.26
2018-07-11T13:40:40.709Z,99515.11
2018-07-11T13:43:10.118Z,99515.03
2018-07-11T13:45:38.873Z,99511.63
2018-07-11T13:48:08.541Z,99510.02
2018-07-11T13:50:37.271Z,99511.75
2018-07-11T13:53:05.981Z,99516.96
2018-07-11T13:55:34.705Z,99512.69
2018-07-11T13:58:03.629Z,99510.86
2018-07-11T14:00:33.477Z,99514.45
2018-07-11T14:03:02.706Z,99510.50
2018-07-11T14:05:31.725Z,99504.50
2018-07-11T14:08:00.432Z,99513.83
2018-07-11T14:10:29.170Z,99513.83
2018-07-11T14:12:57.927Z,99508.77
2018-07-11T14:15:26.666Z,99507.87
2018-07-11T14:17:55.414Z,99504.98
2018-07-11T14:20:24.178Z,99507.50
2018-07-11T14:22:52.987Z,99507.30
2018-07-11T14:25:22.098Z,99510.78
2018-07-11T14:27:51.565Z,99502.95
2018-07-11T14:30:24.669Z,99504.86
2018-07-11T14:32:56.564Z,99503.40
2018-07-11T14:35:25.358Z,99498.00
2018-07-11T14:37:54.101Z,99498.09
2018-07-11T14:40:23.002Z,99501.12
2018-07-11T14:42:51.696Z,99489.72
2018-07-11T14:45:20.537Z,99495.70
2018-07-11T14:47:54.305Z,99489.15
2018-07-11T14:50:23.038Z,99491.67
2018-07-11T14:52:52.136Z,99497.07
2018-07-11T14:55:21.124Z,99498.10
2018-07-11T14:57:50.553Z,99498.31
2018-07-11T15:00:19.253Z,99501.27
2018-07-11T15:02:47.970Z,99494.05
2018-07-11T15:05:16.684Z,99498.86
2018-07-11T15:07:45.469Z,99500.03
2018-07-11T15:10:14.360Z,99494.40
2018-07-11T15:12:43.194Z,99502.35
2018-07-11T15:15:11.885Z,99500.20
2018-07-11T15:17:40.585Z,99498.06
2018-07-11T15:20:09.366Z,99505.68
2018-07-11T15:22:38.113Z,99506.56
2018-07-11T15:25:06.826Z,99505.55
2018-07-11T15:27:35.545Z,99507.50
2018-07-11T15:30:04.260Z,99508.49
2018-07-11T15:32:33.462Z,99508.49
2018-07-11T15:35:02.179Z,99513.56
2018-07-11T15:37:30.970Z,99507.68
2018-07-11T15:39:59.934Z,99511.75
2018-07-11T15:42:28.657Z,99512.41
2018-07-11T15:44:57.430Z,99512.99
2018-07-11T15:47:26.445Z,99506.42
2018-07-11T15:49:55.174Z,99509.75
2018-07-11T15:52:25.645Z,99511.16
2018-07-11T15:54:57.988Z,99507.66
2018-07-11T15:57:33.243Z,99504.87
2018-07-11T16:00:04.638Z,99512.28
2018-07-11T16:02:34.461Z,99501.18
2018-07-11T16:05:03.426Z,99498.08
2018-07-11T16:07:35.942Z,99500.48
2018-07-11T16:10:04.797Z,99502.44
2018-07-11T16:12:33.518Z,99508.30
2018-07-11T16:15:02.225Z,99503.91
2018-07-11T16:17:30.939Z,99500.80
2018-07-11T16:19:59.675Z,99504.02
2018-07-11T16:22:28.431Z,99510.30
2018-07-11T16:24:57.173Z,99508.82
2018-07-11T16:27:25.881Z,99507.18
2018-07-11T16:29:54.621Z,99507.48
2018-07-11T16:32:23.308Z,99510.66
2018-07-11T16:34:51.997Z,99511.91
2018-07-11T16:37:20.810Z,99502.66
2018-07-11T16:39:49.510Z,99506.51
2018-07-11T16:42:19.632Z,99508.34
2018-07-11T16:44:49.021Z,99501.23
2018-07-11T16:47:17.733Z,99512.36
2018-07-11T16:49:46.613Z,99513.00
2018-07-11T16:52:15.333Z,99508.59
2018-07-11T16:54:44.516Z,99511.64
2018-07-11T16:57:16.411Z,99508.50
2018-07-11T16:59:50.921Z,99509.55
2018-07-11T17:02:23.578Z,99508.09
2018-07-11T17:04:54.369Z,99505.47
2018-07-11T17:07:25.041Z,99509.00
2018-07-11T17:09:56.429Z,99504.34
2018-07-11T17:12:25.761Z,99509.38
2018-07-11T17:14:58.672Z,99505.67
2018-07-11T17:17:32.858Z,99507.30
2018-07-11T17:20:07.110Z,99503.03
2018-07-11T17:22:50.431Z,99504.63
2018-07-11T17:25:21.040Z,99502.84
2018-07-11T17:27:58.056Z,99507.97
2018-07-11T17:30:29.323Z,99510.51
2018-07-11T17:32:58.097Z,99521.89
2018-07-11T17:35:26.845Z,99520.39
2018-07-11T17:37:56.159Z,99528.53
2018-07-11T17:40:25.762Z,99528.58
2018-07-11T17:42:55.012Z,99534.72
2018-07-11T17:45:24.015Z,99538.65
2018-07-11T17:48:20.595Z,99534.24
2018-07-11T17:50:50.320Z,99535.33
2018-07-11T17:53:20.964Z,99536.49
2018-07-11T17:56:12.290Z,99535.94
2018-07-11T17:58:57.193Z,99543.30
2018-07-11T18:01:38.850Z,99537.69
2018-07-11T18:04:52.221Z,99534.63
2018-07-11T18:07:29.933Z,99551.79
2018-07-11T18:10:05.662Z,99549.79
2018-07-11T18:12:51.163Z,99554.12
2018-07-11T18:15:42.469Z,99560.78
2018-07-11T18:18:24.890Z,99559.00
2018-07-11T18:21:05.081Z,99566.03
2018-07-11T18:24:17.035Z,99572.48
2018-07-11T18:28:54.509Z,99571.06
2018-07-11T18:31:34.327Z,99575.44
2018-07-11T18:34:21.524Z,99581.33
2018-07-11T18:37:01.605Z,99585.48
2018-07-11T18:39:59.797Z,99588.48
2018-07-11T18:42:43.761Z,99594.09
2018-07-11T18:45:31.746Z,99592.55
2018-07-11T18:48:15.268Z,99594.59
2018-07-11T18:51:26.456Z,99596.61
2018-07-11T18:54:07.974Z,99608.67
2018-07-11T18:56:43.677Z,99615.59
2018-07-11T18:59:55.180Z,99621.02
2018-07-11T19:03:10.459Z,99624.09
2018-07-11T19:05:56.602Z,99618.83
2018-07-11T19:08:36.477Z,99624.53
2018-07-11T19:11:13.155Z,99630.70
2018-07-11T19:13:45.553Z,99625.53
2018-07-11T19:16:19.550Z,99630.34
2018-07-11T19:19:27.317Z,99637.45
2018-07-11T19:22:18.633Z,99639.37
2018-07-11T19:27:05.316Z,99639.97
2018-07-11T19:29:52.362Z,99640.08
2018-07-11T19:33:34.233Z,99647.78
2018-07-11T19:38:21.773Z,99648.13
2018-07-11T19:40:57.813Z,99654.39
2018-07-11T19:45:41.564Z,99653.64
2018-07-11T19:48:26.413Z,99650.66
2018-07-11T19:53:27.733Z,99651.23
2018-07-11T19:56:10.021Z,99651.46
2018-07-11T19:58:38.760Z,99648.94
2018-07-11T20:01:07.457Z,99635.39
2018-07-11T20:03:36.197Z,99650.91
2018-07-11T20:06:04.918Z,99648.94
2018-07-11T20:08:33.647Z,99649.23
2018-07-11T20:11:02.668Z,99653.61
2018-07-11T20:13:31.393Z,99650.59
2018-07-11T20:16:00.214Z,99654.39
2018-07-11T20:18:28.949Z,99653.55
2018-07-11T20:20:57.688Z,99655.13
2018-07-11T20:23:26.420Z,99650.27
2018-07-11T20:25:55.169Z,99653.11
2018-07-11T20:28:23.893Z,99663.53
2018-07-11T20:30:52.694Z,99658.66
2018-07-11T20:33:21.433Z,99665.45
2018-07-11T20:35:50.149Z,99665.42
2018-07-11T20:38:19.113Z,99666.77
2018-07-11T20:40:48.209Z,99662.98
2018-07-11T20:43:17.098Z,99664.63
2018-07-11T20:45:45.985Z,99668.48
2018-07-11T20:48:14.722Z,99665.52
2018-07-11T20:50:43.433Z,99668.28
2018-07-11T20:53:12.134Z,99669.95
2018-07-11T20:55:40.822Z,99670.77
2018-07-11T20:58:20.540Z,99666.95
2018-07-11T21:01:00.406Z,99675.73
2018-07-11T21:07:46.427Z,99678.16
2018-07-11T21:10:36.440Z,99687.74
2018-07-11T21:13:31.118Z,99681.21
2018-07-11T21:16:10.170Z,99685.86
2018-07-11T21:19:00.346Z,99683.12
2018-07-11T21:21:29.125Z,99686.66
2018-07-11T21:23:57.830Z,99683.95
2018-07-11T21:26:26.534Z,99686.95
2018-07-11T21:28:55.275Z,99689.63
2018-07-11T21:31:24.474Z,99688.82
2018-07-11T21:33:53.637Z,99683.94
2018-07-11T21:36:22.829Z,99689.37
2018-07-11T21:38:52.333Z,99682.86
2018-07-11T21:41:21.425Z,99682.31
2018-07-11T21:43:50.773Z,99684.47
2018-07-11T21:46:20.093Z,99689.63
2018-07-11T21:48:49.349Z,99690.47
2018-07-11T21:51:18.431Z,99694.83
2018-07-11T21:53:47.723Z,99687.21
2018-07-11T21:56:16.797Z,99693.72
2018-07-11T21:58:45.582Z,99691.56
2018-07-11T22:01:14.294Z,99695.07
2018-07-11T22:03:42.994Z,99698.89
2018-07-11T22:06:11.794Z,99697.27
2018-07-11T22:08:40.557Z,99698.36
2018-07-11T22:11:09.474Z,99701.39
2018-07-11T22:13:38.201Z,99698.39
2018-07-11T22:16:06.921Z,99697.55
2018-07-11T22:18:38.282Z,99693.77
2018-07-11T22:21:06.760Z,99692.93
2018-07-11T22:23:34.175Z,99689.95
2018-07-11T22:26:01.843Z,99690.50
2018-07-11T22:28:29.275Z,99687.27
2018-07-11T22:30:56.693Z,99688.09
2018-07-11T22:33:24.248Z,99688.35
2018-07-11T22:35:51.641Z,99686.99
2018-07-11T22:38:19.054Z,99686.73
2018-07-11T22:40:46.893Z,99689.47
2018-07-11T22:43:14.338Z,99688.64
2018-07-11T22:45:41.741Z,99684.30
2018-07-11T22:48:09.140Z,99687.30
2018-07-11T22:50:36.541Z,99685.92
2018-07-11T22:53:03.947Z,99687.58
2018-07-11T22:55:31.407Z,99692.47
2018-07-11T22:57:58.819Z,99687.33
2018-07-11T23:00:26.266Z,99691.94
2018-07-11T23:02:53.675Z,99691.94
2018-07-11T23:05:21.094Z,99685.12
2018-07-11T23:07:48.489Z,99686.22
2018-07-11T23:10:15.901Z,99684.61
2018-07-11T23:12:43.331Z,99683.79
2018-07-11T23:15:10.745Z,99688.14
2018-07-11T23:17:38.141Z,99688.13
2018-07-11T23:20:05.571Z,99685.42
2018-07-11T23:22:33.008Z,99691.67
2018-07-11T23:25:00.397Z,99689.47
2018-07-11T23:27:27.803Z,99685.69
2018-07-11T23:29:55.211Z,99687.85
2018-07-11T23:32:22.617Z,99686.23
2018-07-11T23:34:50.009Z,99687.30
2018-07-11T23:37:17.405Z,99687.28
2018-07-11T23:39:44.800Z,99694.63
2018-07-11T23:42:12.198Z,99695.19
2018-07-11T23:44:39.594Z,99690.86
2018-07-11T23:47:07.003Z,99690.31
2018-07-11T23:49:34.440Z,99687.31
2018-07-11T23:52:01.841Z,99685.97
2018-07-11T23:54:29.246Z,99687.83
2018-07-11T23:56:56.649Z,99693.84
2018-07-11T23:59:24.046Z,99693.02
